Time;durP1;ratioP1;P1;durP2;ratioP2;P2;SDS_P1;SDS_P2;PMS_P1;PMS_P2;Temp;Humidity;BMP_temperature;BMP_pressure;BME280_temperature;BME280_humidity;BME280_pressure;Samples;Min_cycle;Max_cycle;Signal;HPM_P1;HPM_P2
2022/08/11 00:00:05;;;;;;;4.20;1.70;;;;;;;;;;5068974;28;20028;-81
2022/08/11 00:02:39;;;;;;;4.82;1.60;;;;;;;;;;5063831;28;20375;-77
2022/08/11 00:05:13;;;;;;;2.78;1.60;;;;;;;;;;5063902;28;20121;-77
2022/08/11 00:07:52;;;;;;;6.65;1.48;;;;;;;;;;5065263;28;20028;-78
2022/08/11 00:10:20;;;;;;;2.78;1.60;;;;;;;;;;5065651;28;20024;-75
2022/08/11 00:12:55;;;;;;;3.67;1.75;;;;;;;;;;5061209;28;20043;-79
2022/08/11 00:15:22;;;;;;;3.83;1.70;;;;;;;;;;5066641;28;20089;-77
2022/08/11 00:17:55;;;;;;;3.15;1.70;;;;;;;;;;5063287;28;20035;-76
2022/08/11 00:20:21;;;;;;;2.72;2.00;;;;;;;;;;5059627;28;20933;-77
2022/08/11 00:22:46;;;;;;;2.17;1.50;;;;;;;;;;5065384;28;20033;-80
2022/08/11 00:25:21;;;;;;;2.17;1.40;;;;;;;;;;5063143;28;20035;-79
2022/08/11 00:27:48;;;;;;;4.68;2.40;;;;;;;;;;5066740;28;20476;-75
2022/08/11 00:30:14;;;;;;;2.03;1.50;;;;;;;;;;5063516;28;20112;-80
2022/08/11 00:32:53;;;;;;;5.05;1.80;;;;;;;;;;5067469;28;20504;-81
2022/08/11 00:35:26;;;;;;;2.45;1.63;;;;;;;;;;5063061;28;20036;-78
2022/08/11 00:37:53;;;;;;;2.63;1.60;;;;;;;;;;5058871;28;20496;-78
2022/08/11 00:40:43;;;;;;;2.85;1.50;;;;;;;;;;5062103;28;20153;-75
2022/08/11 00:43:31;;;;;;;2.67;1.60;;;;;;;;;;5062325;28;20329;-79
2022/08/11 00:46:16;;;;;;;3.35;1.80;;;;;;;;;;5061664;28;20069;-80
2022/08/11 00:49:15;;;;;;;4.10;1.60;;;;;;;;;;5067150;28;20057;-77
2022/08/11 00:51:49;;;;;;;4.00;1.88;;;;;;;;;;5062715;28;20070;-77
2022/08/11 00:54:59;;;;;;;3.10;2.10;;;;;;;;;;5063141;28;20029;-77
2022/08/11 00:57:36;;;;;;;2.85;1.60;;;;;;;;;;5064019;28;20070;-76
2022/08/11 01:00:22;;;;;;;4.38;2.22;;;;;;;;;;5056785;28;20032;-78
2022/08/11 01:02:47;;;;;;;3.03;1.75;;;;;;;;;;5066752;28;20496;-76
2022/08/11 01:05:44;;;;;;;2.63;1.70;;;;;;;;;;5065330;28;20034;-80
2022/08/11 01:08:10;;;;;;;3.33;1.80;;;;;;;;;;5057680;28;20051;-79
2022/08/11 01:10:53;;;;;;;3.78;1.60;;;;;;;;;;5059595;28;20020;-81
2022/08/11 01:13:51;;;;;;;2.50;1.70;;;;;;;;;;5058220;28;20487;-78
2022/08/11 01:16:48;;;;;;;3.65;1.67;;;;;;;;;;5058812;28;20028;-77
2022/08/11 01:19:31;;;;;;;4.13;2.00;;;;;;;;;;5055419;28;20036;-78
2022/08/11 01:22:15;;;;;;;5.82;2.03;;;;;;;;;;5061463;28;20099;-77
2022/08/11 01:25:05;;;;;;;2.92;2.22;;;;;;;;;;5064611;28;20086;-81
2022/08/11 01:27:49;;;;;;;2.70;1.67;;;;;;;;;;5058513;28;20174;-80
2022/08/11 01:30:39;;;;;;;2.88;1.73;;;;;;;;;;5079558;28;20031;-77
2022/08/11 01:33:35;;;;;;;4.20;1.90;;;;;;;;;;5079199;28;20040;-76
2022/08/11 01:36:09;;;;;;;4.72;1.90;;;;;;;;;;5061679;28;20488;-81
2022/08/11 01:39:03;;;;;;;3.33;1.85;;;;;;;;;;5057253;28;20032;-81
2022/08/11 01:44:54;;;;;;;3.80;2.08;;;;;;;;;;5058815;28;20040;-77
2022/08/11 01:47:49;;;;;;;2.83;1.88;;;;;;;;;;5041302;28;20041;-79
2022/08/11 01:50:30;;;;;;;4.28;2.08;;;;;;;;;;5057094;28;20035;-79
2022/08/11 01:53:20;;;;;;;3.63;2.00;;;;;;;;;;5058881;28;20028;-76
2022/08/11 01:56:13;;;;;;;2.70;1.90;;;;;;;;;;5079075;28;20033;-76
2022/08/11 01:58:48;;;;;;;3.85;2.13;;;;;;;;;;5078618;28;20028;-77
2022/08/11 02:01:57;;;;;;;3.88;2.05;;;;;;;;;;5069149;28;20020;-79
2022/08/11 02:04:49;;;;;;;2.90;2.00;;;;;;;;;;5067828;28;20053;-78
2022/08/11 02:07:49;;;;;;;3.03;1.90;;;;;;;;;;5063075;28;20032;-77
2022/08/11 02:13:59;;;;;;;3.38;2.20;;;;;;;;;;5065054;28;20171;-82
2022/08/11 02:16:45;;;;;;;3.28;1.90;;;;;;;;;;5064989;28;20608;-75
2022/08/11 02:25:06;;;;;;;3.83;2.28;;;;;;;;;;5056942;28;22331;-78
2022/08/11 02:27:47;;;;;;;3.30;2.15;;;;;;;;;;5068195;28;20422;-77
2022/08/11 02:30:15;;;;;;;4.00;2.03;;;;;;;;;;5072206;28;20087;-77
2022/08/11 02:35:47;;;;;;;4.30;1.92;;;;;;;;;;5065107;28;20047;-81
2022/08/11 02:38:46;;;;;;;3.30;2.03;;;;;;;;;;5059689;28;20012;-81
2022/08/11 02:44:49;;;;;;;4.40;1.88;;;;;;;;;;5067836;28;20078;-77
2022/08/11 02:47:31;;;;;;;3.47;2.00;;;;;;;;;;5037146;28;20040;-77
2022/08/11 02:50:02;;;;;;;3.83;2.20;;;;;;;;;;5073857;28;20020;-76
2022/08/11 02:52:59;;;;;;;4.32;2.15;;;;;;;;;;5065964;28;20043;-77
2022/08/11 02:56:09;;;;;;;4.75;2.30;;;;;;;;;;5061595;28;20032;-77
2022/08/11 03:02:04;;;;;;;3.33;2.03;;;;;;;;;;5065378;28;20036;-79
2022/08/11 03:04:48;;;;;;;3.50;2.10;;;;;;;;;;5063809;28;20043;-80
2022/08/11 03:07:24;;;;;;;5.45;2.05;;;;;;;;;;5059566;28;20035;-78
2022/08/11 03:10:17;;;;;;;4.35;1.95;;;;;;;;;;5066663;28;20024;-81
2022/08/11 03:19:31;;;;;;;4.05;2.10;;;;;;;;;;4985669;28;20037;-80
2022/08/11 03:22:09;;;;;;;4.60;2.10;;;;;;;;;;5057335;28;20044;-79
2022/08/11 03:25:01;;;;;;;3.85;2.10;;;;;;;;;;5068294;28;20481;-76
2022/08/11 03:27:40;;;;;;;4.18;2.08;;;;;;;;;;5061884;28;20029;-77
2022/08/11 03:30:14;;;;;;;4.28;2.13;;;;;;;;;;5058451;28;21246;-80
2022/08/11 03:35:48;;;;;;;4.68;1.98;;;;;;;;;;5061844;28;20128;-75
2022/08/11 03:38:15;;;;;;;3.67;2.30;;;;;;;;;;5061076;28;20111;-76
2022/08/11 03:43:46;;;;;;;3.85;2.08;;;;;;;;;;5062264;28;20075;-79
2022/08/11 03:46:19;;;;;;;3.97;1.92;;;;;;;;;;5063380;28;20045;-81
2022/08/11 03:49:17;;;;;;;2.88;1.98;;;;;;;;;;5057661;28;20060;-80
2022/08/11 03:52:15;;;;;;;3.10;2.17;;;;;;;;;;5065883;28;20024;-79
2022/08/11 03:55:13;;;;;;;3.35;2.10;;;;;;;;;;5063776;28;20396;-77
2022/08/11 03:58:07;;;;;;;3.80;2.08;;;;;;;;;;5062753;28;20032;-80
2022/08/11 04:00:54;;;;;;;4.15;2.20;;;;;;;;;;5062942;28;20388;-81
2022/08/11 04:04:17;;;;;;;3.80;2.35;;;;;;;;;;5069421;28;20038;-77
2022/08/11 04:07:13;;;;;;;4.28;2.08;;;;;;;;;;5039986;28;20056;-81
2022/08/11 04:10:06;;;;;;;3.58;2.30;;;;;;;;;;5042958;28;20123;-78
2022/08/11 04:12:56;;;;;;;3.40;2.28;;;;;;;;;;5058062;28;20094;-80
2022/08/11 04:16:27;;;;;;;5.38;2.33;;;;;;;;;;5063255;28;20491;-75
2022/08/11 04:18:28;;;;;;;2.92;2.20;;;;;;;;;;5059583;28;20028;-77
2022/08/11 04:21:05;;;;;;;3.60;2.33;;;;;;;;;;5066022;28;20031;-81
2022/08/11 04:23:39;;;;;;;3.22;2.28;;;;;;;;;;5064561;28;20031;-76
2022/08/11 04:26:20;;;;;;;5.45;2.20;;;;;;;;;;5066135;28;20512;-78
2022/08/11 04:28:48;;;;;;;3.80;2.10;;;;;;;;;;5052511;28;20097;-80
2022/08/11 04:31:51;;;;;;;4.50;2.20;;;;;;;;;;5065788;28;20507;-75
2022/08/11 04:34:31;;;;;;;4.07;2.30;;;;;;;;;;5061679;28;20098;-80
2022/08/11 04:40:32;;;;;;;3.47;2.20;;;;;;;;;;5064212;28;20031;-81
2022/08/11 04:46:06;;;;;;;4.00;2.22;;;;;;;;;;5066988;28;20404;-78
2022/08/11 05:02:00;;;;;;;4.60;2.40;;;;;;;;;;5051793;28;20047;-78
2022/08/11 05:07:19;;;;;;;5.07;2.30;;;;;;;;;;5060359;28;20110;-77
2022/08/11 05:10:01;;;;;;;3.60;1.98;;;;;;;;;;5061085;28;20047;-77
2022/08/11 05:12:40;;;;;;;4.18;2.50;;;;;;;;;;5058121;28;20120;-80
2022/08/11 05:35:26;;;;;;;5.15;2.38;;;;;;;;;;5057830;28;20402;-77
2022/08/11 05:57:24;;;;;;;4.10;2.65;;;;;;;;;;5064114;28;20030;-77
2022/08/11 05:59:58;;;;;;;4.38;2.90;;;;;;;;;;5064963;28;20032;-81
2022/08/11 06:02:25;;;;;;;4.55;2.72;;;;;;;;;;5068972;28;20369;-79
2022/08/11 06:04:58;;;;;;;4.93;2.83;;;;;;;;;;5053435;28;20396;-77
2022/08/11 06:07:30;;;;;;;6.25;2.70;;;;;;;;;;5060333;28;20503;-79
2022/08/11 06:09:58;;;;;;;4.63;2.90;;;;;;;;;;5066966;28;20105;-77
2022/08/11 06:12:35;;;;;;;4.45;2.92;;;;;;;;;;5064269;28;20032;-77
2022/08/11 06:15:04;;;;;;;4.25;2.92;;;;;;;;;;5062852;28;20023;-77
2022/08/11 06:17:32;;;;;;;6.72;3.20;;;;;;;;;;5065816;28;20473;-76
2022/08/11 06:20:03;;;;;;;5.43;2.90;;;;;;;;;;5064264;28;20032;-77
2022/08/11 06:22:31;;;;;;;4.90;2.97;;;;;;;;;;5057629;28;20032;-79
2022/08/11 06:24:58;;;;;;;4.70;3.22;;;;;;;;;;5059306;28;20027;-80
2022/08/11 06:27:26;;;;;;;3.78;2.70;;;;;;;;;;5061039;28;20111;-80
2022/08/11 06:29:52;;;;;;;6.03;2.80;;;;;;;;;;5063514;28;20431;-80
2022/08/11 06:32:22;;;;;;;4.30;3.03;;;;;;;;;;5061071;28;20385;-80
2022/08/11 06:35:02;;;;;;;6.18;2.67;;;;;;;;;;5056788;28;20112;-80
2022/08/11 06:37:47;;;;;;;4.43;2.90;;;;;;;;;;5066509;28;20030;-79
2022/08/11 06:40:41;;;;;;;5.03;3.33;;;;;;;;;;5064589;28;20028;-79
2022/08/11 06:43:17;;;;;;;6.85;3.70;;;;;;;;;;5064596;28;20473;-76
2022/08/11 06:46:01;;;;;;;4.97;3.25;;;;;;;;;;5066830;28;20024;-80
2022/08/11 06:48:30;;;;;;;6.13;3.03;;;;;;;;;;5070072;28;20025;-76
2022/08/11 06:51:11;;;;;;;4.90;3.35;;;;;;;;;;5063621;28;20449;-83
2022/08/11 06:54:01;;;;;;;5.93;3.13;;;;;;;;;;5057776;28;20020;-80
2022/08/11 07:02:17;;;;;;;5.22;3.00;;;;;;;;;;5069647;28;20546;-79
2022/08/11 07:05:03;;;;;;;4.28;3.08;;;;;;;;;;5063715;28;20058;-79
2022/08/11 07:16:29;;;;;;;4.18;2.78;;;;;;;;;;5069077;28;20384;-79
2022/08/11 07:30:46;;;;;;;7.07;2.55;;;;;;;;;;5069551;28;20054;-80
2022/08/11 07:33:18;;;;;;;6.70;2.97;;;;;;;;;;5063331;28;20524;-79
2022/08/11 07:35:47;;;;;;;;;;;;;;;;;;5063689;28;20141;-78
2022/08/11 07:38:42;;;;;;;3.78;2.15;;;;;;;;;;5070942;28;19951;-76
2022/08/11 07:41:09;;;;;;;8.55;2.50;;;;;;;;;;5068232;28;20130;-77
2022/08/11 07:43:35;;;;;;;3.65;2.17;;;;;;;;;;5064672;28;20021;-78
2022/08/11 07:54:18;;;;;;;3.40;2.20;;;;;;;;;;5068441;28;20116;-75
2022/08/11 07:56:44;;;;;;;4.30;2.30;;;;;;;;;;5069310;28;20032;-76
2022/08/11 08:18:26;;;;;;;5.95;2.20;;;;;;;;;;5062518;28;20396;-77
2022/08/11 08:20:54;;;;;;;3.90;2.45;;;;;;;;;;5066030;28;20024;-76
2022/08/11 08:23:34;;;;;;;3.50;2.30;;;;;;;;;;5064147;28;20398;-78
2022/08/11 08:26:03;;;;;;;4.93;2.50;;;;;;;;;;5067976;28;20035;-76
2022/08/11 08:28:29;;;;;;;4.45;2.40;;;;;;;;;;5064994;28;20040;-78
2022/08/11 08:30:56;;;;;;;3.38;2.10;;;;;;;;;;5064797;28;20104;-78
2022/08/11 08:33:26;;;;;;;7.78;2.38;;;;;;;;;;5057981;28;20037;-78
2022/08/11 08:36:10;;;;;;;4.13;2.50;;;;;;;;;;5065856;28;20039;-85
2022/08/11 08:38:55;;;;;;;5.38;2.58;;;;;;;;;;5066729;28;20393;-83
2022/08/11 08:41:33;;;;;;;3.58;2.20;;;;;;;;;;5065590;28;20043;-76
2022/08/11 08:44:06;;;;;;;3.70;2.30;;;;;;;;;;5057843;28;20024;-76
2022/08/11 08:46:47;;;;;;;3.30;2.20;;;;;;;;;;5063564;28;20028;-84
2022/08/11 08:49:15;;;;;;;5.20;2.33;;;;;;;;;;5067302;28;20055;-81
2022/08/11 08:51:45;;;;;;;4.25;2.25;;;;;;;;;;5061595;28;20128;-76
2022/08/11 08:54:16;;;;;;;3.58;2.30;;;;;;;;;;5056688;28;20037;-76
2022/08/11 08:56:43;;;;;;;4.53;2.40;;;;;;;;;;5053345;28;20085;-77
2022/08/11 08:59:12;;;;;;;3.65;2.30;;;;;;;;;;5068640;28;20052;-75
2022/08/11 09:01:47;;;;;;;4.22;2.40;;;;;;;;;;5065276;28;20035;-77
2022/08/11 09:04:14;;;;;;;4.70;2.40;;;;;;;;;;5067840;28;20036;-81
2022/08/11 09:06:43;;;;;;;5.13;2.45;;;;;;;;;;5060761;28;20499;-81
2022/08/11 09:09:11;;;;;;;5.10;2.45;;;;;;;;;;5068392;28;20021;-84
2022/08/11 09:11:54;;;;;;;4.25;2.20;;;;;;;;;;5066415;28;20032;-79
2022/08/11 09:14:23;;;;;;;3.90;2.50;;;;;;;;;;5058543;28;20024;-83
2022/08/11 09:16:49;;;;;;;6.40;2.53;;;;;;;;;;5073333;28;20020;-80
2022/08/11 09:19:17;;;;;;;3.53;2.40;;;;;;;;;;5054144;28;20664;-80
2022/08/11 09:26:57;;;;;;;3.60;2.33;;;;;;;;;;5056776;28;20033;-77
2022/08/11 09:27:15;;;;;;;4.68;2.38;;;;;;;;;;5062309;28;20445;-79
2022/08/11 09:29:40;;;;;;;5.35;2.63;;;;;;;;;;5062088;28;20033;-76
2022/08/11 09:32:07;;;;;;;5.22;2.55;;;;;;;;;;5055870;28;20024;-76
2022/08/11 09:34:36;;;;;;;3.08;2.20;;;;;;;;;;5062485;28;20060;-81
2022/08/11 09:45:16;;;;;;;3.95;2.15;;;;;;;;;;5066183;28;20039;-82
2022/08/11 09:47:42;;;;;;;5.43;2.50;;;;;;;;;;5066872;28;20020;-82
2022/08/11 09:50:09;;;;;;;5.05;2.45;;;;;;;;;;5064664;28;20020;-76
2022/08/11 09:52:37;;;;;;;4.97;2.38;;;;;;;;;;5068837;28;20028;-77
2022/08/11 09:55:09;;;;;;;4.40;2.50;;;;;;;;;;5065683;28;20476;-77
2022/08/11 10:00:28;;;;;;;5.03;2.47;;;;;;;;;;5061976;28;20535;-82
2022/08/11 10:02:55;;;;;;;2.92;2.00;;;;;;;;;;5065131;28;20032;-77
2022/08/11 10:08:10;;;;;;;4.43;2.33;;;;;;;;;;5066996;28;20396;-77
2022/08/11 10:10:38;;;;;;;5.07;2.40;;;;;;;;;;5067705;28;20028;-77
2022/08/11 10:13:20;;;;;;;3.50;2.33;;;;;;;;;;5067740;28;20051;-79
2022/08/11 10:15:47;;;;;;;5.43;2.27;;;;;;;;;;5058496;28;20024;-83
2022/08/11 10:21:27;;;;;;;6.38;2.50;;;;;;;;;;5069865;28;20088;-81
2022/08/11 10:35:00;;;;;;;2.97;2.20;;;;;;;;;;5065993;28;20032;-77
2022/08/11 10:37:26;;;;;;;4.55;2.40;;;;;;;;;;5076112;28;20033;-76
2022/08/11 10:39:55;;;;;;;5.38;2.53;;;;;;;;;;5069006;28;20464;-82
2022/08/11 10:47:54;;;;;;;5.25;2.40;;;;;;;;;;5066135;28;20385;-84
2022/08/11 10:58:48;;;;;;;3.65;2.70;;;;;;;;;;5066727;28;20028;-87
2022/08/11 11:01:22;;;;;;;4.32;2.58;;;;;;;;;;5066936;28;20143;-77
2022/08/11 11:03:51;;;;;;;4.97;2.22;;;;;;;;;;5065822;28;20043;-78
2022/08/11 11:06:54;;;;;;;3.42;2.28;;;;;;;;;;5070604;28;20071;-83
2022/08/11 11:09:31;;;;;;;;;;;;;;;;;;5071978;28;20028;-77
2022/08/11 11:17:55;;;;;;;3.72;2.38;;;;;;;;;;5069437;28;20516;-77
2022/08/11 11:20:39;;;;;;;3.40;2.10;;;;;;;;;;5068535;28;20403;-78
2022/08/11 11:23:08;;;;;;;4.85;2.40;;;;;;;;;;5072174;28;20046;-85
2022/08/11 11:26:05;;;;;;;3.03;2.42;;;;;;;;;;5065431;28;20032;-78
2022/08/11 11:29:00;;;;;;;8.18;2.72;;;;;;;;;;5070768;28;20032;-84
2022/08/11 11:31:44;;;;;;;4.43;2.45;;;;;;;;;;5065914;28;20021;-83
2022/08/11 11:34:31;;;;;;;4.45;2.40;;;;;;;;;;5070967;28;20393;-84
2022/08/11 11:36:59;;;;;;;3.63;2.22;;;;;;;;;;5068677;28;20113;-78
2022/08/11 11:39:27;;;;;;;3.83;2.28;;;;;;;;;;5070242;28;20174;-83
2022/08/11 11:42:05;;;;;;;3.50;2.42;;;;;;;;;;5067726;28;20501;-86
2022/08/11 11:44:31;;;;;;;3.60;2.30;;;;;;;;;;5064459;28;20139;-78
2022/08/11 11:46:59;;;;;;;3.10;2.35;;;;;;;;;;5063275;28;20033;-83
2022/08/11 11:49:28;;;;;;;3.10;2.40;;;;;;;;;;5069459;28;20040;-81
2022/08/11 11:51:56;;;;;;;4.10;2.50;;;;;;;;;;5066651;28;20071;-77
2022/08/11 11:54:35;;;;;;;3.08;2.30;;;;;;;;;;5069898;28;20028;-87
2022/08/11 12:02:36;;;;;;;3.40;2.30;;;;;;;;;;5063080;28;20389;-78
2022/08/11 12:05:02;;;;;;;3.60;2.38;;;;;;;;;;5064840;28;20416;-78
2022/08/11 12:10:16;;;;;;;4.90;2.55;;;;;;;;;;5058857;28;20078;-78
2022/08/11 12:15:26;;;;;;;4.30;2.55;;;;;;;;;;5068459;28;20067;-85
2022/08/11 12:17:52;;;;;;;4.82;2.55;;;;;;;;;;5067155;28;20072;-78
2022/08/11 12:20:20;;;;;;;2.88;2.25;;;;;;;;;;5069001;28;20023;-79
2022/08/11 12:28:13;;;;;;;4.05;2.13;;;;;;;;;;5067057;28;20055;-79
2022/08/11 12:30:40;;;;;;;5.18;2.40;;;;;;;;;;5064563;28;20029;-79
2022/08/11 12:33:07;;;;;;;3.28;2.33;;;;;;;;;;5058467;28;20063;-80
2022/08/11 12:35:34;;;;;;;7.43;2.50;;;;;;;;;;5060126;28;20074;-82
2022/08/11 12:38:02;;;;;;;3.03;2.30;;;;;;;;;;5057591;28;20021;-86
2022/08/11 12:46:30;;;;;;;4.97;2.10;;;;;;;;;;5059673;28;20047;-80
2022/08/11 12:51:57;;;;;;;3.30;2.20;;;;;;;;;;5055843;28;20531;-87
2022/08/11 12:54:33;;;;;;;3.10;2.30;;;;;;;;;;5056098;28;20097;-81
2022/08/11 13:05:19;;;;;;;4.68;2.30;;;;;;;;;;5064267;28;20075;-80
2022/08/11 13:07:46;;;;;;;4.95;2.40;;;;;;;;;;5059914;28;20492;-77
2022/08/11 13:12:46;;;;;;;4.82;2.70;;;;;;;;;;5059903;28;20032;-78
2022/08/11 13:13:00;;;;;;;3.95;2.10;;;;;;;;;;5057516;28;20432;-78
2022/08/11 13:15:26;;;;;;;4.40;2.30;;;;;;;;;;5059906;28;20557;-83
2022/08/11 13:17:53;;;;;;;2.55;2.00;;;;;;;;;;5044545;28;20032;-78
2022/08/11 13:20:21;;;;;;;2.70;2.17;;;;;;;;;;5062502;28;20044;-79
2022/08/11 13:22:49;;;;;;;6.32;2.38;;;;;;;;;;5064614;28;20059;-82
2022/08/11 13:25:17;;;;;;;2.92;2.10;;;;;;;;;;5057901;28;20381;-85
2022/08/11 13:27:48;;;;;;;3.95;2.20;;;;;;;;;;5073501;28;20119;-84
2022/08/11 13:33:00;;;;;;;2.80;2.10;;;;;;;;;;5060644;28;20519;-82
2022/08/11 13:35:27;;;;;;;5.40;2.20;;;;;;;;;;5064260;28;20032;-82
2022/08/11 13:37:55;;;;;;;3.38;2.10;;;;;;;;;;5044408;28;20024;-81
2022/08/11 13:40:21;;;;;;;5.50;2.38;;;;;;;;;;5058826;28;20055;-80
2022/08/11 13:42:48;;;;;;;3.75;2.30;;;;;;;;;;5062984;28;20428;-82
2022/08/11 13:45:14;;;;;;;5.35;2.67;;;;;;;;;;5062507;28;20029;-86
2022/08/11 13:47:41;;;;;;;2.80;2.30;;;;;;;;;;5069183;28;20562;-81
2022/08/11 13:50:08;;;;;;;7.32;2.30;;;;;;;;;;5046990;28;20031;-79
2022/08/11 13:52:38;;;;;;;5.13;2.28;;;;;;;;;;5056089;28;20218;-83
2022/08/11 13:55:07;;;;;;;5.38;2.40;;;;;;;;;;5058506;28;20025;-79
2022/08/11 13:57:34;;;;;;;3.13;2.17;;;;;;;;;;5060423;28;20653;-83
2022/08/11 14:00:09;;;;;;;3.22;2.20;;;;;;;;;;5060888;28;20381;-81
2022/08/11 14:02:38;;;;;;;4.00;2.40;;;;;;;;;;5064010;28;20047;-86
2022/08/11 14:05:04;;;;;;;3.53;2.40;;;;;;;;;;5063597;28;20037;-79
2022/08/11 14:07:44;;;;;;;3.42;2.30;;;;;;;;;;5063557;28;22008;-82
2022/08/11 14:10:11;;;;;;;2.92;2.03;;;;;;;;;;5051596;28;20161;-78
2022/08/11 14:15:33;;;;;;;3.10;2.05;;;;;;;;;;5057937;28;20574;-85
2022/08/11 14:18:06;;;;;;;2.83;1.98;;;;;;;;;;5064638;28;20059;-79
2022/08/11 14:23:26;;;;;;;3.15;1.77;;;;;;;;;;5060979;28;20043;-84
2022/08/11 14:28:37;;;;;;;3.70;2.00;;;;;;;;;;5057779;28;20440;-78
2022/08/11 14:31:06;;;;;;;4.07;2.10;;;;;;;;;;5062891;28;20028;-79
2022/08/11 14:33:33;;;;;;;3.38;1.90;;;;;;;;;;5062440;28;20084;-78
2022/08/11 14:35:59;;;;;;;4.57;1.75;;;;;;;;;;5064372;28;20032;-82
2022/08/11 14:38:24;;;;;;;2.40;1.90;;;;;;;;;;5061323;28;20376;-78
2022/08/11 14:49:05;;;;;;;3.50;1.98;;;;;;;;;;5061692;28;20121;-84
2022/08/11 14:51:32;;;;;;;5.93;1.92;;;;;;;;;;5063194;28;20064;-78
2022/08/11 14:56:35;;;;;;;3.90;1.88;;;;;;;;;;5060914;28;20024;-79
2022/08/11 14:56:43;;;;;;;3.08;1.77;;;;;;;;;;5060298;28;20032;-79
2022/08/11 14:59:11;;;;;;;3.47;2.10;;;;;;;;;;5056606;28;20062;-79
2022/08/11 15:04:22;;;;;;;2.85;1.90;;;;;;;;;;5054407;28;20044;-85
2022/08/11 15:06:53;;;;;;;2.78;2.00;;;;;;;;;;5064028;28;20048;-83
2022/08/11 15:09:19;;;;;;;4.43;1.80;;;;;;;;;;5064607;28;20032;-79
2022/08/11 15:17:19;;;;;;;4.10;2.00;;;;;;;;;;5055315;28;20078;-79
2022/08/11 15:25:14;;;;;;;2.75;1.80;;;;;;;;;;5060777;28;20058;-78
2022/08/11 15:38:57;;;;;;;4.28;1.90;;;;;;;;;;5058462;28;20166;-78
2022/08/11 15:47:13;;;;;;;4.57;2.20;;;;;;;;;;5063692;28;20158;-81
2022/08/11 15:49:41;;;;;;;2.92;2.00;;;;;;;;;;5060144;28;20029;-82
2022/08/11 15:52:10;;;;;;;4.05;2.00;;;;;;;;;;5053822;28;20035;-86
2022/08/11 15:54:43;;;;;;;3.83;2.00;;;;;;;;;;5052482;28;20120;-85
2022/08/11 16:05:16;;;;;;;2.78;1.90;;;;;;;;;;5054004;28;20028;-82
2022/08/11 16:07:47;;;;;;;3.28;2.10;;;;;;;;;;5054099;28;20032;-78
2022/08/11 16:10:20;;;;;;;3.05;1.92;;;;;;;;;;5056074;28;20465;-79
2022/08/11 16:18:20;;;;;;;3.25;2.00;;;;;;;;;;5051390;28;20594;-78
2022/08/11 16:20:51;;;;;;;3.30;2.10;;;;;;;;;;5057147;28;20033;-79
2022/08/11 16:23:18;;;;;;;5.20;1.80;;;;;;;;;;5059822;28;20029;-78
2022/08/11 16:25:45;;;;;;;6.50;2.00;;;;;;;;;;5058376;28;20404;-79
2022/08/11 16:28:12;;;;;;;2.63;2.00;;;;;;;;;;5047588;28;20032;-84
2022/08/11 16:30:40;;;;;;;3.75;1.98;;;;;;;;;;5049929;28;20079;-82
2022/08/11 16:33:08;;;;;;;2.78;1.75;;;;;;;;;;5056468;28;20675;-81
2022/08/11 16:38:34;;;;;;;3.17;1.92;;;;;;;;;;5059795;28;20752;-81
2022/08/11 16:41:04;;;;;;;2.80;1.77;;;;;;;;;;5051074;28;20028;-78
2022/08/11 16:49:07;;;;;;;3.55;1.90;;;;;;;;;;5058970;28;20035;-81
2022/08/11 16:51:33;;;;;;;3.00;1.90;;;;;;;;;;5054970;28;20039;-78
2022/08/11 16:53:59;;;;;;;4.00;1.85;;;;;;;;;;5061445;28;20028;-79
2022/08/11 16:56:51;;;;;;;4.47;1.80;;;;;;;;;;5063188;28;20052;-83
2022/08/11 16:59:22;;;;;;;3.45;1.90;;;;;;;;;;5053994;28;20120;-79
2022/08/11 17:01:54;;;;;;;3.17;1.90;;;;;;;;;;5068478;28;20041;-81
2022/08/11 17:13:13;;;;;;;2.20;1.70;;;;;;;;;;5063284;28;20067;-77
2022/08/11 17:16:05;;;;;;;3.33;1.88;;;;;;;;;;5057596;28;20020;-79
2022/08/11 17:18:41;;;;;;;3.83;1.80;;;;;;;;;;5062280;28;20059;-78
2022/08/11 17:21:20;;;;;;;5.28;1.70;;;;;;;;;;5065192;28;20028;-83
2022/08/11 17:23:59;;;;;;;4.15;1.80;;;;;;;;;;5065295;28;20476;-83
2022/08/11 17:29:23;;;;;;;4.07;1.95;;;;;;;;;;5058241;28;20064;-78
2022/08/11 17:37:21;;;;;;;3.17;1.80;;;;;;;;;;5054866;28;20808;-80
2022/08/11 17:39:48;;;;;;;3.58;1.80;;;;;;;;;;5057956;28;20114;-79
2022/08/11 17:50:29;;;;;;;4.15;2.03;;;;;;;;;;5058314;28;20039;-81
2022/08/11 18:01:11;;;;;;;3.42;1.70;;;;;;;;;;5057440;28;20519;-83
2022/08/11 18:03:39;;;;;;;3.90;1.70;;;;;;;;;;5056329;28;20680;-81
2022/08/11 18:06:07;;;;;;;4.15;1.88;;;;;;;;;;5052015;28;20047;-78
